Time;durP1;ratioP1;P1;durP2;ratioP2;P2;SDS_P1;SDS_P2;PMS_P1;PMS_P2;Temp;Humidity;BMP_temperature;BMP_pressure;BME280_temperature;BME280_humidity;BME280_pressure;Samples;Min_cycle;Max_cycle;Signal;HPM_P1;HPM_P2
2023/09/02 00:01:35;;;;;;;10.30;5.53;;;;;;;12.86;100.00;99536.63;5158499;27;20047;-60
2023/09/02 00:04:02;;;;;;;9.30;5.13;;;;;;;12.87;100.00;99543.72;5157997;27;20085;-62
2023/09/02 00:06:29;;;;;;;13.32;5.40;;;;;;;12.86;100.00;99540.19;5158445;27;20357;-60
2023/09/02 00:08:55;;;;;;;11.23;5.05;;;;;;;12.86;100.00;99542.94;5157910;27;20392;-59
2023/09/02 00:11:21;;;;;;;8.00;5.88;;;;;;;12.87;100.00;99547.28;5158192;27;20106;-58
2023/09/02 00:13:47;;;;;;;10.05;5.68;;;;;;;12.83;100.00;99551.94;5158246;27;20396;-60
2023/09/02 00:16:13;;;;;;;7.35;5.15;;;;;;;12.76;100.00;99551.81;5157929;27;20434;-61
2023/09/02 00:18:39;;;;;;;8.73;5.40;;;;;;;12.75;100.00;99554.94;5158009;27;20435;-60
2023/09/02 00:21:05;;;;;;;12.00;5.75;;;;;;;12.73;100.00;99547.06;5158059;27;20079;-61
2023/09/02 00:23:31;;;;;;;7.50;5.32;;;;;;;12.73;100.00;99547.06;5158164;27;20058;-59
2023/09/02 00:25:57;;;;;;;10.30;5.35;;;;;;;12.69;100.00;99547.00;5157758;27;20053;-59
2023/09/02 00:28:24;;;;;;;13.35;5.40;;;;;;;12.64;100.00;99566.56;5158191;27;20059;-58
2023/09/02 00:30:49;;;;;;;11.43;5.55;;;;;;;12.61;100.00;99567.31;5157808;27;20134;-60
2023/09/02 00:33:15;;;;;;;9.50;5.40;;;;;;;12.60;100.00;99578.69;5158157;27;20147;-61
2023/09/02 00:35:41;;;;;;;11.63;5.70;;;;;;;12.59;100.00;99580.63;5157715;27;20136;-61
2023/09/02 00:38:07;;;;;;;14.77;6.32;;;;;;;12.56;100.00;99580.56;5158076;27;20053;-61
2023/09/02 00:40:34;;;;;;;12.30;6.30;;;;;;;12.54;100.00;99574.66;5157569;27;20046;-60
2023/09/02 00:43:02;;;;;;;11.63;6.60;;;;;;;12.57;100.00;99585.72;5157874;27;20199;-60
2023/09/02 00:45:29;;;;;;;10.07;6.63;;;;;;;12.54;100.00;99594.69;5157871;27;20150;-58
2023/09/02 00:47:56;;;;;;;13.35;6.88;;;;;;;12.49;100.00;99600.50;5157666;27;20114;-60
2023/09/02 00:50:22;;;;;;;12.45;5.78;;;;;;;12.51;100.00;99594.63;5157670;27;20108;-59
2023/09/02 00:52:48;;;;;;;14.05;5.57;;;;;;;12.48;100.00;99598.91;5157515;27;20058;-58
2023/09/02 00:55:14;;;;;;;11.75;6.38;;;;;;;12.52;100.00;99599.75;5157871;27;20145;-59
2023/09/02 00:57:42;;;;;;;12.73;6.10;;;;;;;12.52;100.00;99607.22;5157529;27;20141;-60
2023/09/02 01:00:09;;;;;;;10.73;5.93;;;;;;;12.52;100.00;99605.25;5157815;27;20057;-59
2023/09/02 01:02:38;;;;;;;10.70;6.28;;;;;;;12.48;100.00;99609.91;5157435;27;20054;-61
2023/09/02 01:05:05;;;;;;;13.70;6.20;;;;;;;12.48;100.00;99618.16;5157806;27;20057;-59
2023/09/02 01:07:33;;;;;;;18.33;7.40;;;;;;;12.42;100.00;99614.13;5159505;27;20138;-61
2023/09/02 01:10:00;;;;;;;10.73;6.57;;;;;;;12.45;100.00;99618.88;5160822;27;20141;-59
2023/09/02 01:12:26;;;;;;;13.57;6.63;;;;;;;12.49;100.00;99622.50;5161154;27;20141;-62
2023/09/02 01:14:53;;;;;;;12.63;5.93;;;;;;;12.30;100.00;99622.56;5161002;27;20046;-61
2023/09/02 01:17:19;;;;;;;10.93;6.18;;;;;;;12.46;100.00;99621.28;5161114;27;20358;-61
2023/09/02 01:19:48;;;;;;;14.30;6.10;;;;;;;12.43;100.00;99624.78;5160720;27;20133;-59
2023/09/02 01:22:33;;;;;;;12.10;6.63;;;;;;;12.42;100.00;99619.63;5160915;27;20082;-59
2023/09/02 01:25:24;;;;;;;13.43;7.00;;;;;;;12.46;100.00;99621.28;5160711;27;20137;-60
2023/09/02 01:27:55;;;;;;;22.23;8.23;;;;;;;12.41;100.00;99615.28;5160798;27;20134;-60
2023/09/02 01:30:26;;;;;;;15.82;7.55;;;;;;;12.40;100.00;99609.00;5160799;27;20097;-59
2023/09/02 01:32:53;;;;;;;12.98;7.35;;;;;;;12.35;100.00;99614.00;5160725;27;20046;-61
2023/09/02 01:35:24;;;;;;;12.60;6.18;;;;;;;12.36;100.00;99616.41;5160762;27;20331;-58
2023/09/02 01:37:55;;;;;;;17.38;7.47;;;;;;;12.36;100.00;99618.31;5160532;27;20055;-60
2023/09/02 01:40:24;;;;;;;11.05;6.70;;;;;;;12.40;100.00;99619.22;5160608;27;20107;-59
2023/09/02 01:42:51;;;;;;;11.35;7.20;;;;;;;12.39;100.00;99625.84;5160286;27;20099;-59
2023/09/02 01:45:17;;;;;;;10.20;6.78;;;;;;;12.36;100.00;99632.91;5160676;27;20427;-59
2023/09/02 01:47:44;;;;;;;13.30;7.10;;;;;;;12.38;100.00;99625.06;5160187;27;20149;-61
2023/09/02 01:50:12;;;;;;;16.23;7.10;;;;;;;12.36;100.00;99626.56;5160752;27;20103;-60
2023/09/02 01:52:39;;;;;;;11.60;6.75;;;;;;;12.35;100.00;99628.53;5160120;27;20150;-61
2023/09/02 01:55:06;;;;;;;17.55;7.90;;;;;;;12.28;100.00;99630.38;5160151;27;20063;-61
2023/09/02 01:57:32;;;;;;;16.65;6.93;;;;;;;12.36;100.00;99632.06;5160366;27;20137;-58
2023/09/02 01:59:59;;;;;;;19.23;7.43;;;;;;;12.31;100.00;99635.94;5160049;27;20141;-60
2023/09/02 02:02:25;;;;;;;11.00;6.75;;;;;;;12.34;100.00;99626.97;5160347;27;20057;-60
2023/09/02 02:04:55;;;;;;;15.32;7.45;;;;;;;12.33;100.00;99628.13;5160178;27;20046;-60
2023/09/02 02:07:26;;;;;;;12.82;7.15;;;;;;;12.31;100.00;99630.44;5160247;27;20046;-59
2023/09/02 02:09:58;;;;;;;10.25;6.82;;;;;;;12.28;100.00;99630.38;5159986;27;20070;-59
2023/09/02 02:12:26;;;;;;;11.32;6.55;;;;;;;12.25;100.00;99637.38;5160266;27;20188;-60
2023/09/02 02:14:51;;;;;;;11.15;7.32;;;;;;;12.27;100.00;99634.28;5159795;27;20057;-58
2023/09/02 02:17:18;;;;;;;19.92;7.30;;;;;;;12.24;100.00;99639.34;5160115;27;20342;-59
2023/09/02 02:19:44;;;;;;;8.80;6.80;;;;;;;12.23;100.00;99636.97;5159194;27;20129;-59
2023/09/02 02:22:10;;;;;;;11.20;7.30;;;;;;;12.21;100.00;99634.56;5159960;27;20210;-60
2023/09/02 02:24:36;;;;;;;16.17;7.00;;;;;;;12.18;100.00;99627.06;5159787;27;20360;-60
2023/09/02 02:27:02;;;;;;;17.25;6.97;;;;;;;12.16;100.00;99634.88;5159517;27;20191;-59
2023/09/02 02:29:28;;;;;;;11.25;6.38;;;;;;;12.17;100.00;99636.47;5159954;27;20064;-59
2023/09/02 02:31:55;;;;;;;15.15;8.32;;;;;;;12.18;100.00;99643.53;5159661;27;20046;-61
2023/09/02 02:34:22;;;;;;;8.98;6.82;;;;;;;12.13;100.00;99643.84;5159786;27;20092;-59
2023/09/02 02:36:48;;;;;;;16.95;8.32;;;;;;;12.10;100.00;99636.34;5159607;27;20055;-59
2023/09/02 02:39:14;;;;;;;10.90;7.10;;;;;;;12.01;100.00;99639.28;5159830;27;20081;-59
2023/09/02 02:41:40;;;;;;;16.05;7.22;;;;;;;12.01;100.00;99636.53;5159399;27;20061;-59
2023/09/02 02:44:06;;;;;;;17.67;8.38;;;;;;;12.07;100.00;99641.75;5159866;27;20104;-59
2023/09/02 02:46:32;;;;;;;14.90;7.47;;;;;;;12.00;100.00;99637.72;5159177;27;20134;-60
2023/09/02 02:48:58;;;;;;;18.52;7.93;;;;;;;12.00;100.00;99640.47;5159299;27;20053;-60
2023/09/02 02:51:24;;;;;;;12.05;6.72;;;;;;;12.00;100.00;99645.97;5159420;27;20055;-58
2023/09/02 02:53:51;;;;;;;18.20;7.20;;;;;;;12.00;100.00;99651.44;5159161;27;20431;-58
2023/09/02 02:56:17;;;;;;;18.23;7.53;;;;;;;11.98;100.00;99644.72;5159477;27;20055;-61
2023/09/02 02:58:42;;;;;;;9.35;6.40;;;;;;;11.92;100.00;99640.66;5159237;27;20431;-61
2023/09/02 03:01:11;;;;;;;11.40;6.35;;;;;;;11.95;100.00;99645.44;5159465;27;20192;-60
2023/09/02 03:03:37;;;;;;;12.15;6.65;;;;;;;12.02;100.00;99649.13;5159345;27;20046;-61
2023/09/02 03:06:04;;;;;;;15.07;7.30;;;;;;;11.95;100.00;99642.69;5159350;27;20360;-60
2023/09/02 03:08:31;;;;;;;20.30;6.85;;;;;;;11.86;100.00;99651.19;5158895;27;20137;-60
2023/09/02 03:10:57;;;;;;;13.10;6.35;;;;;;;11.94;100.00;99643.88;5159422;27;20046;-60
2023/09/02 03:13:24;;;;;;;10.95;7.10;;;;;;;11.94;100.00;99641.91;5158762;27;20324;-61
2023/09/02 03:15:50;;;;;;;10.50;5.72;;;;;;;11.97;100.00;99651.38;5159317;27;20051;-60
2023/09/02 03:18:16;;;;;;;15.45;6.72;;;;;;;11.96;100.00;99649.78;5159071;27;20109;-58
2023/09/02 03:20:42;;;;;;;11.73;6.35;;;;;;;11.90;100.00;99648.50;5158733;27;20440;-58
2023/09/02 03:23:08;;;;;;;9.50;6.60;;;;;;;11.91;100.00;99653.63;5158845;27;20146;-60
2023/09/02 03:25:35;;;;;;;11.85;6.53;;;;;;;11.91;100.00;99648.13;5158865;27;20046;-61
2023/09/02 03:28:01;;;;;;;13.93;7.10;;;;;;;11.92;100.00;99652.44;5158993;27;20050;-60
2023/09/02 03:30:27;;;;;;;14.02;6.43;;;;;;;11.92;100.00;99648.91;5158531;27;20047;-58
2023/09/02 03:32:53;;;;;;;9.05;6.38;;;;;;;11.89;100.00;99655.13;5158968;27;20051;-59
2023/09/02 03:35:20;;;;;;;7.95;6.68;;;;;;;11.91;100.00;99659.09;5158626;27;20353;-61
2023/09/02 03:37:46;;;;;;;9.60;5.97;;;;;;;11.95;100.00;99665.47;5158896;27;20066;-60
2023/09/02 03:40:12;;;;;;;12.60;6.32;;;;;;;11.95;100.00;99661.94;5158546;27;20392;-58
2023/09/02 03:42:38;;;;;;;8.48;6.25;;;;;;;12.00;100.00;99661.66;5158905;27;20400;-60
2023/09/02 03:45:05;;;;;;;9.10;6.28;;;;;;;11.79;100.00;99661.97;5158376;27;20047;-58
2023/09/02 03:47:31;;;;;;;13.48;7.25;;;;;;;11.96;100.00;99660.75;5158485;27;20184;-59
2023/09/02 03:49:57;;;;;;;8.15;6.10;;;;;;;12.01;100.00;99663.22;5158607;27;20198;-60
2023/09/02 03:52:23;;;;;;;9.70;6.03;;;;;;;12.09;100.00;99661.41;5158446;27;20110;-58
2023/09/02 03:54:49;;;;;;;16.73;5.82;;;;;;;12.03;100.00;99658.19;5158388;27;20103;-58
2023/09/02 03:57:15;;;;;;;12.73;5.85;;;;;;;12.07;100.00;99661.00;5158188;27;20102;-60
2023/09/02 03:59:41;;;;;;;9.85;6.40;;;;;;;12.28;100.00;99668.84;5158523;27;20051;-61
2023/09/02 04:02:08;;;;;;;13.40;6.55;;;;;;;12.84;100.00;99665.53;5158321;27;20055;-59
2023/09/02 04:04:34;;;;;;;9.27;5.78;;;;;;;13.40;100.00;99651.09;5158505;27;20055;-61
2023/09/02 04:07:00;;;;;;;7.75;5.78;;;;;;;13.94;100.00;99569.88;5158062;27;20190;-59
2023/09/02 04:09:25;;;;;;;8.88;5.20;;;;;;;14.27;100.00;99340.16;5158433;27;20050;-59
2023/09/02 04:11:52;;;;;;;18.30;6.28;;;;;;;14.63;100.00;99061.72;5158058;27;20389;-61
2023/09/02 04:14:18;;;;;;;9.27;5.93;;;;;;;15.05;100.00;98731.56;5158379;27;20137;-60
2023/09/02 04:16:44;;;;;;;8.93;6.47;;;;;;;15.61;100.00;98518.75;5157954;27;20408;-59
2023/09/02 04:19:11;;;;;;;9.00;6.10;;;;;;;15.76;100.00;98415.13;5158098;27;20070;-60
2023/09/02 04:21:37;;;;;;;10.40;4.20;;;;;;;15.86;100.00;98339.59;5158203;27;20062;-61
2023/09/02 04:24:03;;;;;;;8.45;4.18;;;;;;;15.74;100.00;98312.53;5158054;27;20313;-60
2023/09/02 04:26:29;;;;;;;6.22;4.38;;;;;;;15.32;100.00;98341.56;5157552;27;20424;-59
2023/09/02 04:28:55;;;;;;;9.10;5.53;;;;;;;15.38;100.00;98375.81;5157948;27;20047;-61
2023/09/02 04:31:21;;;;;;;11.68;6.07;;;;;;;15.40;100.00;98376.19;5158152;27;20047;-59
2023/09/02 04:33:48;;;;;;;23.88;7.60;;;;;;;15.42;100.00;98393.88;5157777;27;20141;-61
2023/09/02 04:36:14;;;;;;;9.30;5.13;;;;;;;16.17;100.00;98333.94;5158111;27;20051;-59
2023/09/02 04:38:40;;;;;;;11.90;5.10;;;;;;;16.35;100.00;98276.28;5157593;27;20358;-59
2023/09/02 04:41:06;;;;;;;8.73;5.78;;;;;;;16.69;100.00;98270.47;5158313;27;20134;-60
2023/09/02 04:43:33;;;;;;;12.98;7.68;;;;;;;17.05;100.00;98296.63;5161236;27;20377;-62
2023/09/02 04:46:01;;;;;;;6.50;4.70;;;;;;;17.52;100.00;98313.72;5161392;27;20068;-60
2023/09/02 04:48:28;;;;;;;13.38;7.25;;;;;;;17.63;100.00;98355.84;5161509;27;20057;-60
2023/09/02 04:50:55;;;;;;;12.52;5.35;;;;;;;17.90;100.00;98367.91;5161225;27;20106;-60
2023/09/02 04:53:21;;;;;;;13.38;6.65;;;;;;;18.19;100.00;98406.81;5161430;27;20080;-60
2023/09/02 04:55:47;;;;;;;13.85;5.35;;;;;;;18.53;100.00;98429.31;5161272;27;20269;-62
2023/09/02 04:58:14;;;;;;;13.48;7.32;;;;;;;18.45;100.00;98450.13;5161333;27;20150;-60
2023/09/02 05:00:40;;;;;;;11.75;3.90;;;;;;;18.47;100.00;98424.75;5161226;27;20059;-61
2023/09/02 05:03:08;;;;;;;16.40;6.03;;;;;;;18.92;100.00;98508.06;5161431;27;20050;-59
2023/09/02 05:05:34;;;;;;;8.50;4.78;;;;;;;19.06;100.00;98512.47;5160991;27;20055;-60
2023/09/02 05:08:02;;;;;;;12.43;5.00;;;;;;;19.36;100.00;98550.16;5161215;27;20058;-61
2023/09/02 05:10:28;;;;;;;9.13;4.57;;;;;;;19.49;100.00;98600.22;5160922;27;20046;-62
2023/09/02 05:12:54;;;;;;;7.18;4.40;;;;;;;19.80;100.00;98617.28;5161258;27;20400;-62
2023/09/02 05:15:20;;;;;;;8.85;4.95;;;;;;;19.41;100.00;98633.00;5161087;27;20057;-60
2023/09/02 05:17:46;;;;;;;11.57;4.90;;;;;;;19.91;100.00;98675.38;5160993;27;20046;-61
2023/09/02 05:20:12;;;;;;;13.75;5.40;;;;;;;19.94;100.00;98732.94;5161063;27;20387;-61
2023/09/02 05:22:38;;;;;;;16.48;5.00;;;;;;;20.38;100.00;98756.34;5160906;27;20134;-61
2023/09/02 05:25:05;;;;;;;9.43;5.53;;;;;;;20.64;100.00;98762.00;5160982;27;20047;-59
2023/09/02 05:27:32;;;;;;;7.93;4.88;;;;;;;20.89;100.00;98825.31;5160630;27;20137;-60
2023/09/02 05:29:58;;;;;;;7.10;4.35;;;;;;;21.22;100.00;98828.72;5160925;27;20054;-61
2023/09/02 05:32:24;;;;;;;9.32;5.90;;;;;;;22.18;100.00;98880.69;5160544;27;20388;-60
2023/09/02 05:34:50;;;;;;;11.25;4.68;;;;;;;22.09;100.00;98897.31;5160828;27;20064;-60
2023/09/02 05:37:15;;;;;;;10.02;4.40;;;;;;;22.49;100.00;98933.09;5160444;27;20146;-60
2023/09/02 05:39:41;;;;;;;9.38;4.35;;;;;;;22.12;100.00;98921.53;5160908;27;20149;-61
2023/09/02 05:42:08;;;;;;;9.90;4.53;;;;;;;22.85;100.00;98948.63;5160307;27;20302;-62
2023/09/02 05:44:34;;;;;;;7.35;4.68;;;;;;;22.95;100.00;98961.47;5160333;27;20328;-60
2023/09/02 05:47:00;;;;;;;8.75;5.60;;;;;;;22.99;100.00;98962.91;5160470;27;20147;-61
2023/09/02 05:49:26;;;;;;;10.63;5.53;;;;;;;22.58;100.00;98958.34;5160265;27;20061;-60
2023/09/02 05:51:52;;;;;;;7.82;4.43;;;;;;;22.09;100.00;98944.75;5160574;27;20047;-62
2023/09/02 05:54:18;;;;;;;5.85;4.30;;;;;;;21.16;100.00;98914.16;5158790;27;20050;-62
2023/09/02 05:56:46;;;;;;;16.23;6.38;;;;;;;20.64;100.00;98828.84;5160496;27;20218;-62
2023/09/02 05:59:13;;;;;;;11.30;7.03;;;;;;;20.01;100.00;98791.16;5160239;27;20491;-62
2023/09/02 06:01:39;;;;;;;8.55;4.60;;;;;;;19.37;100.00;98767.72;5160471;27;20146;-62
2023/09/02 06:04:06;;;;;;;10.90;4.47;;;;;;;20.21;100.00;98811.28;5160071;27;20218;-59
2023/09/02 06:06:31;;;;;;;18.08;4.47;;;;;;;20.91;100.00;98804.16;5160350;27;20046;-60
2023/09/02 06:08:57;;;;;;;10.50;5.07;;;;;;;21.93;100.00;98889.88;5159891;27;20297;-60
2023/09/02 06:11:23;;;;;;;9.40;4.05;;;;;;;22.46;100.00;98926.44;5160392;27;20077;-59
2023/09/02 06:13:49;;;;;;;12.70;4.65;;;;;;;22.43;100.00;98943.31;5159882;27;20051;-59
2023/09/02 06:16:16;;;;;;;13.55;5.50;;;;;;;22.96;100.00;98952.66;5160019;27;20141;-61
2023/09/02 06:18:42;;;;;;;10.13;4.22;;;;;;;23.24;100.00;98967.59;5160088;27;20137;-60
2023/09/02 06:21:09;;;;;;;11.95;4.03;;;;;;;23.69;100.00;98988.72;5159878;27;20153;-61
2023/09/02 06:23:35;;;;;;;9.15;3.75;;;;;;;24.35;100.00;98994.09;5160025;27;20053;-60
2023/09/02 06:26:01;;;;;;;10.30;4.25;;;;;;;24.52;100.00;99002.25;5159770;27;20133;-60
2023/09/02 06:28:28;;;;;;;10.57;3.42;;;;;;;24.85;100.00;99010.88;5159822;27;20148;-61
2023/09/02 06:30:54;;;;;;;13.48;5.38;;;;;;;25.21;100.00;99012.94;5159593;27;20495;-60
2023/09/02 06:33:22;;;;;;;7.95;5.20;;;;;;;24.87;100.00;99017.59;5159901;27;20051;-60
2023/09/02 06:35:48;;;;;;;10.10;4.03;;;;;;;25.23;100.00;99018.88;5159550;27;20175;-61
2023/09/02 06:38:14;;;;;;;8.15;3.85;;;;;;;24.89;100.00;99015.09;5159373;27;20065;-61
2023/09/02 06:40:40;;;;;;;16.10;6.30;;;;;;;25.18;100.00;99015.91;5159432;27;20062;-61
2023/09/02 06:43:06;;;;;;;8.68;7.00;;;;;;;24.95;100.00;99012.44;5159601;27;20078;-63
2023/09/02 06:45:32;;;;;;;11.85;5.47;;;;;;;25.01;100.00;99018.22;5159525;27;20471;-63
2023/09/02 06:47:58;;;;;;;8.88;4.28;;;;;;;25.11;100.00;99022.56;5159438;27;20145;-62
2023/09/02 06:50:26;;;;;;;9.38;4.40;;;;;;;25.45;98.25;99024.28;5159543;27;20057;-61
2023/09/02 06:52:51;;;;;;;7.47;4.00;;;;;;;25.72;95.00;99037.50;5159357;27;20057;-61
2023/09/02 06:55:17;;;;;;;8.75;2.97;;;;;;;25.99;96.86;99033.88;5159532;27;20051;-62
2023/09/02 06:57:44;;;;;;;6.15;3.72;;;;;;;26.29;91.61;99037.66;5159288;27;20093;-62
2023/09/02 07:00:10;;;;;;;8.82;3.55;;;;;;;26.79;85.98;99051.31;5159556;27;20046;-58
2023/09/02 07:02:36;;;;;;;10.10;3.60;;;;;;;26.66;89.39;99045.16;5159060;27;20141;-60
2023/09/02 07:05:04;;;;;;;7.35;3.08;;;;;;;27.07;80.51;99046.25;5159022;27;20185;-59
2023/09/02 07:07:31;;;;;;;8.63;3.25;;;;;;;27.38;75.58;99059.94;5158811;27;20106;-58
2023/09/02 07:09:57;;;;;;;5.18;3.30;;;;;;;27.28;78.77;99054.88;5159157;27;20137;-60
2023/09/02 07:12:24;;;;;;;7.75;3.35;;;;;;;27.40;76.72;99051.78;5159139;27;20344;-58
2023/09/02 07:14:50;;;;;;;9.18;3.55;;;;;;;27.52;78.11;99052.75;5159052;27;20051;-59
2023/09/02 07:17:16;;;;;;;12.88;3.72;;;;;;;27.71;75.88;99055.41;5158994;27;20077;-61
2023/09/02 07:19:41;;;;;;;11.82;3.85;;;;;;;27.43;78.31;99050.81;5158993;27;20103;-61
2023/09/02 07:22:07;;;;;;;6.68;2.90;;;;;;;27.31;75.97;99065.94;5159061;27;20046;-60
2023/09/02 07:24:34;;;;;;;6.88;3.13;;;;;;;27.58;76.11;99059.28;5158832;27;20161;-59
2023/09/02 07:27:00;;;;;;;6.57;2.70;;;;;;;28.12;73.04;99057.19;5158902;27;20195;-60
2023/09/02 07:29:28;;;;;;;7.18;3.50;;;;;;;27.44;71.56;99065.69;5158723;27;20146;-59
2023/09/02 07:31:54;;;;;;;8.90;3.38;;;;;;;26.73;72.36;99065.25;5159048;27;20074;-61
2023/09/02 07:34:20;;;;;;;8.43;2.95;;;;;;;26.80;74.66;99064.09;5158538;27;20058;-61
2023/09/02 07:36:46;;;;;;;7.88;3.20;;;;;;;27.56;72.69;99069.50;5158994;27;20141;-60
2023/09/02 07:39:12;;;;;;;5.25;2.75;;;;;;;27.61;70.06;99066.75;5158381;27;20061;-60
2023/09/02 07:41:39;;;;;;;7.20;2.78;;;;;;;27.38;73.36;99073.22;5158629;27;20058;-59
2023/09/02 07:44:06;;;;;;;7.97;2.67;;;;;;;26.35;76.78;99067.91;5158599;27;20046;-59
2023/09/02 07:46:32;;;;;;;7.68;2.40;;;;;;;27.65;70.48;99081.41;5158343;27;20408;-58
2023/09/02 07:48:57;;;;;;;4.80;2.35;;;;;;;27.82;71.48;99073.31;5158624;27;20105;-59
2023/09/02 07:51:23;;;;;;;2.90;2.20;;;;;;;27.53;68.89;99076.88;5158334;27;20046;-60
2023/09/02 07:53:49;;;;;;;7.03;3.08;;;;;;;27.59;69.28;99071.31;5158555;27;20054;-61
2023/09/02 07:56:15;;;;;;;2.88;1.90;;;;;;;26.83;75.27;99071.59;5158339;27;20050;-62
2023/09/02 07:58:43;;;;;;;4.53;2.50;;;;;;;26.62;76.27;99064.97;5158619;27;20057;-60
2023/09/02 08:01:09;;;;;;;3.75;2.22;;;;;;;26.07;75.78;99067.25;5158106;27;20081;-58
2023/09/02 08:03:35;;;;;;;4.55;2.38;;;;;;;24.87;82.75;99064.47;5158220;27;20365;-59
2023/09/02 08:06:04;;;;;;;6.32;2.53;;;;;;;24.65;90.44;99065.34;5158017;27;20070;-59
2023/09/02 08:08:30;;;;;;;7.35;2.58;;;;;;;24.44;89.61;99063.44;5157790;27;20134;-60
2023/09/02 08:11:01;;;;;;;4.35;2.20;;;;;;;24.94;89.11;99064.16;5158320;27;20057;-59
2023/09/02 08:13:27;;;;;;;6.07;2.78;;;;;;;25.95;84.06;99064.13;5157968;27;20054;-60
2023/09/02 08:15:54;;;;;;;6.00;2.97;;;;;;;26.05;77.49;99073.31;5157306;27;20089;-62
2023/09/02 08:18:20;;;;;;;6.47;2.72;;;;;;;26.61;76.73;99076.72;5158155;27;20061;-61
2023/09/02 08:20:46;;;;;;;6.53;2.78;;;;;;;26.83;75.63;99074.41;5158290;27;20133;-62
2023/09/02 08:23:12;;;;;;;5.78;2.13;;;;;;;26.87;70.50;99079.84;5158073;27;20416;-61
2023/09/02 08:25:37;;;;;;;4.85;1.98;;;;;;;27.13;69.13;99078.13;5158094;27;20307;-60
2023/09/02 08:28:04;;;;;;;4.00;2.08;;;;;;;28.39;68.17;99086.34;5157607;27;20046;-60
2023/09/02 08:30:30;;;;;;;6.82;2.40;;;;;;;29.12;66.16;99087.34;5158257;27;20058;-58
2023/09/02 08:32:57;;;;;;;5.20;2.22;;;;;;;29.04;63.57;99087.00;5157750;27;20335;-59
2023/09/02 08:35:23;;;;;;;5.15;2.00;;;;;;;29.19;63.87;99094.63;5158175;27;20366;-58
2023/09/02 08:37:51;;;;;;;7.97;2.67;;;;;;;28.71;63.93;99089.34;5157788;27;20078;-59
2023/09/02 08:40:17;;;;;;;4.20;2.55;;;;;;;29.40;63.88;99098.22;5157946;27;20076;-59
2023/09/02 08:42:43;;;;;;;3.67;2.35;;;;;;;29.62;63.80;99092.06;5157960;27;20084;-59
2023/09/02 08:45:11;;;;;;;3.67;2.40;;;;;;;28.83;64.27;99099.53;5157753;27;20055;-58
2023/09/02 08:47:39;;;;;;;4.60;2.60;;;;;;;28.73;62.66;99096.06;5157588;27;20051;-59
2023/09/02 08:50:08;;;;;;;19.83;8.15;;;;;;;27.50;66.94;99096.75;5157646;27;20099;-59
2023/09/02 08:52:34;;;;;;;21.23;8.80;;;;;;;27.30;70.31;99091.75;5157755;27;20046;-59
2023/09/02 08:55:02;;;;;;;8.30;4.63;;;;;;;27.62;68.60;99098.50;5157547;27;20141;-60
2023/09/02 08:57:28;;;;;;;6.53;2.95;;;;;;;27.17;67.96;99087.16;5157875;27;20047;-61
2023/09/02 08:59:54;;;;;;;6.82;2.70;;;;;;;27.62;70.23;99093.69;5157376;27;20332;-60
2023/09/02 09:02:20;;;;;;;4.68;2.60;;;;;;;28.38;66.85;99096.00;5157751;27;20324;-59
2023/09/02 09:04:48;;;;;;;4.78;2.70;;;;;;;28.76;68.75;99099.94;5157554;27;20050;-60
2023/09/02 09:07:17;;;;;;;3.33;2.75;;;;;;;28.21;68.14;99092.91;5157065;27;20042;-60
2023/09/02 09:09:43;;;;;;;6.50;3.10;;;;;;;28.64;67.56;99101.03;5157475;27;20187;-60
2023/09/02 09:12:11;;;;;;;5.35;2.75;;;;;;;28.88;67.57;99098.03;5157388;27;20061;-61
2023/09/02 09:14:40;;;;;;;3.05;1.95;;;;;;;27.60;70.86;99101.81;5157354;27;20106;-61
2023/09/02 09:17:07;;;;;;;5.15;2.30;;;;;;;27.95;70.18;99104.00;5157200;27;20403;-59
2023/09/02 09:19:33;;;;;;;13.40;3.20;;;;;;;28.43;68.19;99103.03;5157546;27;20050;-59
2023/09/02 09:22:02;;;;;;;4.55;2.03;;;;;;;28.64;64.73;99106.69;5156955;27;20416;-59
2023/09/02 09:24:29;;;;;;;5.60;2.17;;;;;;;28.81;67.11;99110.53;5157404;27;20114;-59
2023/09/02 09:26:55;;;;;;;2.85;2.40;;;;;;;28.10;68.48;99113.25;5157151;27;20050;-60
2023/09/02 09:29:21;;;;;;;3.30;2.42;;;;;;;28.17;68.52;99105.66;5160976;27;20056;-62
2023/09/02 09:31:48;;;;;;;8.07;2.63;;;;;;;28.37;67.73;99109.31;5160435;27;20050;-60
2023/09/02 09:34:14;;;;;;;3.25;2.50;;;;;;;28.32;66.93;99109.22;5160436;27;20412;-62
2023/09/02 09:36:40;;;;;;;9.00;3.20;;;;;;;28.24;71.18;99106.03;5160669;27;20139;-61
2023/09/02 09:39:07;;;;;;;5.78;2.90;;;;;;;28.19;69.73;99114.41;5160494;27;20449;-60
2023/09/02 09:41:35;;;;;;;3.03;2.50;;;;;;;27.38;71.54;99107.00;5160349;27;20438;-60
2023/09/02 09:44:06;;;;;;;6.03;2.40;;;;;;;28.24;68.08;99103.22;5160503;27;20379;-60
2023/09/02 09:46:33;;;;;;;7.32;2.83;;;;;;;28.37;68.84;99102.91;5160577;27;20286;-60
2023/09/02 09:49:01;;;;;;;7.15;2.75;;;;;;;28.68;66.70;99107.25;5160366;27;20369;-61
2023/09/02 09:51:27;;;;;;;3.55;2.08;;;;;;;28.29;66.20;99107.38;5160222;27;20115;-62
2023/09/02 09:53:54;;;;;;;3.92;2.17;;;;;;;28.75;67.50;99109.66;5160239;27;20138;-61
2023/09/02 09:56:20;;;;;;;2.10;1.90;;;;;;;29.08;67.34;99104.50;5160586;27;20353;-59
2023/09/02 09:58:47;;;;;;;3.20;2.10;;;;;;;28.97;64.69;99109.97;5160405;27;20064;-60
2023/09/02 10:01:22;;;;;;;3.40;1.83;;;;;;;28.91;63.20;99108.34;5160238;27;20145;-62
2023/09/02 10:03:48;;;;;;;2.97;1.80;;;;;;;28.68;64.79;99107.25;5160370;27;20057;-62
2023/09/02 10:06:14;;;;;;;4.25;1.90;;;;;;;28.01;64.63;99106.94;5160197;27;20106;-59
2023/09/02 10:08:53;;;;;;;3.30;2.22;;;;;;;27.51;67.51;99104.72;5159981;27;20051;-60
2023/09/02 10:11:21;;;;;;;2.90;2.13;;;;;;;28.01;66.04;99107.69;5160035;27;20133;-61
2023/09/02 10:13:50;;;;;;;2.72;1.60;;;;;;;28.14;66.37;99101.78;5160250;27;20054;-62
2023/09/02 10:16:17;;;;;;;3.72;2.15;;;;;;;27.04;72.99;99100.66;5159883;27;20495;-61
2023/09/02 10:18:46;;;;;;;4.75;2.22;;;;;;;26.88;70.22;99095.47;5160369;27;20093;-62
2023/09/02 10:21:13;;;;;;;4.18;2.00;;;;;;;26.50;70.88;99094.88;5159712;27;20146;-60
2023/09/02 10:23:43;;;;;;;3.90;2.20;;;;;;;26.66;69.24;99093.72;5159908;27;20137;-61
2023/09/02 10:26:18;;;;;;;3.85;2.22;;;;;;;27.32;68.25;99087.19;5159668;27;20065;-61
2023/09/02 10:28:49;;;;;;;4.95;2.03;;;;;;;26.84;70.66;99086.44;5159558;27;20082;-60
2023/09/02 10:31:20;;;;;;;3.10;2.10;;;;;;;26.39;70.20;99088.97;5160107;27;20069;-60
2023/09/02 10:33:54;;;;;;;3.25;1.92;;;;;;;26.97;67.77;99087.75;5159682;27;20392;-59
2023/09/02 10:36:23;;;;;;;5.50;2.70;;;;;;;27.79;69.38;99096.84;5159957;27;20142;-61
2023/09/02 10:38:50;;;;;;;4.13;2.03;;;;;;;27.86;66.50;99088.00;5158721;27;20058;-62
2023/09/02 10:41:17;;;;;;;4.80;1.95;;;;;;;26.82;67.36;99088.94;5159769;27;20475;-60
2023/09/02 10:43:45;;;;;;;3.20;2.03;;;;;;;27.07;67.08;99094.09;5159374;27;20043;-62
2023/09/02 10:46:12;;;;;;;3.72;2.30;;;;;;;27.31;67.63;99087.69;5159287;27;20137;-60
2023/09/02 10:48:43;;;;;;;6.57;3.00;;;;;;;27.73;66.75;99087.47;5159256;27;20057;-61
2023/09/02 10:51:10;;;;;;;5.90;1.95;;;;;;;28.22;66.30;99093.69;5159373;27;20115;-61
2023/09/02 10:53:55;;;;;;;3.33;2.03;;;;;;;28.11;63.49;99099.94;5159392;27;20137;-60
2023/09/02 10:56:24;;;;;;;3.28;1.90;;;;;;;27.73;67.10;99095.16;5159308;27;20047;-62
2023/09/02 10:58:50;;;;;;;2.10;1.75;;;;;;;27.46;66.38;99096.94;5159593;27;20061;-61
2023/09/02 11:01:16;;;;;;;5.78;1.63;;;;;;;27.21;67.11;99093.38;5159282;27;20046;-62
2023/09/02 11:03:45;;;;;;;8.23;2.08;;;;;;;26.17;70.20;99092.03;5159551;27;20046;-61
2023/09/02 11:06:12;;;;;;;4.15;1.83;;;;;;;25.73;75.07;99100.06;5159232;27;20050;-60
2023/09/02 11:08:44;;;;;;;3.20;2.15;;;;;;;25.15;76.68;99098.97;5158885;27;20082;-60
2023/09/02 11:11:11;;;;;;;3.40;1.90;;;;;;;25.66;76.07;99097.53;5159216;27;20129;-60
2023/09/02 11:14:10;;;;;;;4.22;2.45;;;;;;;25.11;81.00;99087.09;5159366;27;20078;-59
2023/09/02 11:16:38;;;;;;;3.22;2.35;;;;;;;25.25;80.13;99096.94;5159249;27;20360;-60
2023/09/02 11:19:08;;;;;;;3.92;1.90;;;;;;;24.83;80.33;99095.47;5158841;27;20046;-61
2023/09/02 11:21:38;;;;;;;2.95;1.70;;;;;;;23.99;84.46;99089.16;5159109;27;20416;-59
2023/09/02 11:24:14;;;;;;;1.88;1.60;;;;;;;23.53;87.83;99092.44;5158746;27;20043;-59